createdAt,value
2017-10-12T00:00:04.333Z,0.00
2017-10-12T00:01:04.300Z,0.00
2017-10-12T00:02:04.266Z,0.00
2017-10-12T00:03:04.233Z,0.00
2017-10-12T00:04:04.201Z,0.00
2017-10-12T00:05:04.168Z,0.00
2017-10-12T00:06:04.134Z,0.00
2017-10-12T00:07:04.102Z,0.00
2017-10-12T00:08:04.069Z,0.00
2017-10-12T00:09:04.037Z,0.00
2017-10-12T00:10:04.004Z,0.00
2017-10-12T00:11:03.973Z,0.00
2017-10-12T00:12:03.939Z,0.00
2017-10-12T00:13:03.906Z,0.00
2017-10-12T00:14:03.873Z,0.00
2017-10-12T00:15:03.841Z,0.00
2017-10-12T00:16:03.809Z,0.00
2017-10-12T00:17:03.776Z,0.00
2017-10-12T00:18:03.743Z,0.00
2017-10-12T00:19:03.711Z,0.00
2017-10-12T00:20:03.682Z,0.00
2017-10-12T00:21:03.647Z,0.00
2017-10-12T00:22:03.618Z,0.00
2017-10-12T00:23:03.896Z,0.00
2017-10-12T00:24:03.548Z,0.00
2017-10-12T00:25:03.514Z,0.00
2017-10-12T00:26:03.483Z,0.00
2017-10-12T00:27:03.450Z,0.00
2017-10-12T00:28:03.419Z,0.00
2017-10-12T00:29:03.388Z,0.00
2017-10-12T00:30:03.352Z,0.00
2017-10-12T00:31:03.319Z,0.00
2017-10-12T00:32:03.287Z,0.00
2017-10-12T00:33:03.255Z,0.00
2017-10-12T00:34:03.222Z,0.00
2017-10-12T00:35:03.189Z,0.00
2017-10-12T00:36:03.156Z,0.00
2017-10-12T00:37:03.124Z,0.00
2017-10-12T00:38:03.091Z,0.00
2017-10-12T00:39:03.059Z,0.00
2017-10-12T00:40:03.031Z,0.00
2017-10-12T00:41:02.994Z,0.00
2017-10-12T00:42:02.966Z,0.00
2017-10-12T00:43:02.928Z,0.00
2017-10-12T00:44:02.898Z,0.00
2017-10-12T00:45:02.867Z,0.00
2017-10-12T00:46:02.832Z,0.00
2017-10-12T00:47:02.803Z,0.00
2017-10-12T00:48:02.768Z,0.00
2017-10-12T00:49:02.736Z,0.00
2017-10-12T00:50:02.712Z,0.00
2017-10-12T00:51:02.670Z,0.00
2017-10-12T00:52:02.637Z,0.00
2017-10-12T00:53:02.614Z,0.00
2017-10-12T00:54:02.573Z,0.00
2017-10-12T00:55:02.876Z,0.00
2017-10-12T00:56:02.511Z,0.00
2017-10-12T00:57:02.475Z,0.00
2017-10-12T00:58:02.442Z,0.00
2017-10-12T00:59:02.410Z,0.00
2017-10-12T01:00:02.380Z,0.00
2017-10-12T01:01:02.347Z,0.00
2017-10-12T01:02:02.313Z,0.00
2017-10-12T01:03:02.282Z,0.00
2017-10-12T01:04:02.249Z,0.00
2017-10-12T01:05:02.216Z,0.00
2017-10-12T01:06:02.178Z,0.00
2017-10-12T01:07:02.165Z,0.00
2017-10-12T01:08:02.120Z,0.00
2017-10-12T01:09:02.086Z,0.00
2017-10-12T01:10:02.053Z,0.00
2017-10-12T01:11:02.022Z,0.00
2017-10-12T01:12:01.988Z,0.00
2017-10-12T01:13:01.956Z,0.00
2017-10-12T01:14:01.925Z,0.00
2017-10-12T01:15:01.893Z,0.00
2017-10-12T01:16:02.467Z,0.00
2017-10-12T01:17:01.827Z,0.00
2017-10-12T01:18:01.792Z,0.00
2017-10-12T01:19:01.762Z,0.00
2017-10-12T01:20:01.729Z,0.00
2017-10-12T01:21:01.698Z,0.00
2017-10-12T01:22:01.665Z,0.00
2017-10-12T01:23:01.633Z,0.00
2017-10-12T01:24:01.599Z,0.00
2017-10-12T01:25:01.567Z,0.00
2017-10-12T01:26:01.534Z,0.00
2017-10-12T01:27:01.503Z,0.00
2017-10-12T01:28:01.469Z,0.00
2017-10-12T01:29:01.447Z,0.00
2017-10-12T01:30:01.405Z,0.00
2017-10-12T01:31:01.373Z,0.00
2017-10-12T01:32:01.340Z,0.00
2017-10-12T01:33:01.308Z,0.00
2017-10-12T01:34:01.274Z,0.00
2017-10-12T01:35:02.072Z,0.00
2017-10-12T01:36:01.217Z,0.00
2017-10-12T01:37:01.176Z,0.00
2017-10-12T01:38:01.146Z,0.00
2017-10-12T01:39:01.111Z,0.00
2017-10-12T01:40:01.081Z,0.00
2017-10-12T01:41:01.049Z,0.00
2017-10-12T01:42:01.015Z,0.00
2017-10-12T01:43:00.985Z,0.00
2017-10-12T01:44:00.952Z,0.00
2017-10-12T01:45:00.919Z,0.00
2017-10-12T01:46:00.885Z,0.00
2017-10-12T01:47:00.853Z,0.00
2017-10-12T01:48:00.822Z,0.00
2017-10-12T01:49:00.788Z,0.00
2017-10-12T01:50:00.755Z,0.00
2017-10-12T01:51:00.723Z,0.00
2017-10-12T01:52:00.690Z,0.00
2017-10-12T01:53:00.662Z,0.00
2017-10-12T01:54:00.628Z,0.00
2017-10-12T01:55:00.593Z,0.00
2017-10-12T01:56:00.561Z,0.00
2017-10-12T01:57:00.527Z,0.00
2017-10-12T01:58:00.682Z,0.00
2017-10-12T01:59:00.469Z,0.00
2017-10-12T02:00:00.432Z,0.00
2017-10-12T02:01:00.400Z,0.00
2017-10-12T02:02:00.367Z,0.00
2017-10-12T02:03:00.333Z,0.00
2017-10-12T02:04:00.302Z,0.00
2017-10-12T02:05:00.270Z,0.00
2017-10-12T02:06:00.236Z,0.00
2017-10-12T02:07:00.204Z,0.00
2017-10-12T02:08:00.174Z,0.00
2017-10-12T02:09:00.944Z,0.00
2017-10-12T02:10:00.107Z,0.00
2017-10-12T02:11:00.074Z,0.00
2017-10-12T02:12:00.043Z,0.00
2017-10-12T02:13:00.011Z,0.00
2017-10-12T02:13:59.976Z,0.00
2017-10-12T02:14:59.943Z,0.00
2017-10-12T02:15:59.912Z,0.00
2017-10-12T02:16:59.880Z,0.00
2017-10-12T02:17:59.846Z,0.00
2017-10-12T02:18:59.813Z,0.00
2017-10-12T02:19:59.782Z,0.00
2017-10-12T02:20:59.749Z,0.00
2017-10-12T02:21:59.716Z,0.00
2017-10-12T02:22:59.684Z,0.00
2017-10-12T02:23:59.650Z,0.00
2017-10-12T02:24:59.619Z,0.00
2017-10-12T02:25:59.584Z,0.00
2017-10-12T02:26:59.552Z,0.00
2017-10-12T02:27:59.517Z,0.00
2017-10-12T02:28:59.485Z,0.00
2017-10-12T02:29:59.456Z,0.00
2017-10-12T02:30:59.418Z,0.00
2017-10-12T02:31:59.386Z,0.00
2017-10-12T02:32:59.355Z,0.00
2017-10-12T02:33:59.320Z,0.00
2017-10-12T02:34:59.290Z,0.00
2017-10-12T02:35:59.260Z,0.00
2017-10-12T02:36:59.222Z,0.00
2017-10-12T02:37:59.191Z,0.00
2017-10-12T02:38:59.158Z,0.00
2017-10-12T02:39:59.124Z,0.00
2017-10-12T02:40:59.093Z,0.00
2017-10-12T02:41:59.060Z,0.00
2017-10-12T02:42:59.033Z,0.00
2017-10-12T02:43:58.993Z,0.00
2017-10-12T02:44:58.962Z,0.00
2017-10-12T02:45:58.927Z,0.00
2017-10-12T02:46:58.896Z,0.00
2017-10-12T02:47:59.168Z,0.00
2017-10-12T02:48:58.830Z,0.00
2017-10-12T02:49:58.796Z,0.00
2017-10-12T02:50:58.763Z,0.00
2017-10-12T02:51:58.732Z,0.00
2017-10-12T02:52:58.699Z,0.00
2017-10-12T02:53:58.663Z,0.00
2017-10-12T02:54:58.632Z,0.00
2017-10-12T02:55:58.602Z,0.00
2017-10-12T02:56:58.569Z,0.00
2017-10-12T02:57:58.537Z,0.00
2017-10-12T02:58:58.502Z,0.00
2017-10-12T02:59:58.470Z,0.00
2017-10-12T03:00:58.434Z,0.00
2017-10-12T03:01:58.403Z,0.00
2017-10-12T03:02:58.371Z,0.00
2017-10-12T03:03:58.340Z,0.00
2017-10-12T03:04:58.781Z,0.00
2017-10-12T03:05:58.273Z,0.00
2017-10-12T03:06:58.238Z,0.00
2017-10-12T03:07:58.208Z,0.00
2017-10-12T03:08:58.176Z,0.00
2017-10-12T03:09:58.142Z,0.00
2017-10-12T03:10:58.109Z,0.00
2017-10-12T03:11:58.077Z,0.00
2017-10-12T03:12:58.101Z,0.00
2017-10-12T03:13:58.011Z,0.00
2017-10-12T03:14:57.979Z,0.00
2017-10-12T03:15:57.945Z,0.00
2017-10-12T03:16:57.915Z,0.00
2017-10-12T03:17:58.109Z,0.00
2017-10-12T03:18:57.847Z,0.00
2017-10-12T03:19:57.815Z,0.00
2017-10-12T03:20:57.783Z,0.00
2017-10-12T03:21:57.750Z,0.00
2017-10-12T03:22:57.716Z,0.00
2017-10-12T03:23:57.684Z,0.00
2017-10-12T03:24:57.652Z,0.00
2017-10-12T03:25:57.617Z,0.00
2017-10-12T03:26:57.584Z,0.00
2017-10-12T03:27:57.551Z,0.00
2017-10-12T03:28:57.520Z,0.00
2017-10-12T03:29:57.486Z,0.00
2017-10-12T03:30:57.456Z,0.00
2017-10-12T03:31:57.427Z,0.00
2017-10-12T03:32:57.389Z,0.00
2017-10-12T03:33:57.355Z,0.00
2017-10-12T03:34:57.322Z,0.00
2017-10-12T03:35:57.300Z,0.00
2017-10-12T03:36:57.258Z,0.00
2017-10-12T03:37:57.223Z,0.00
2017-10-12T03:38:57.192Z,0.00
2017-10-12T03:39:57.159Z,0.00
2017-10-12T03:40:57.127Z,0.00
2017-10-12T03:41:57.093Z,0.00
2017-10-12T03:42:57.063Z,0.00
2017-10-12T03:43:57.029Z,0.00
2017-10-12T03:44:56.997Z,0.00
2017-10-12T03:45:56.961Z,0.00
2017-10-12T03:46:56.929Z,0.00
2017-10-12T03:47:56.981Z,0.00
2017-10-12T03:48:56.989Z,0.00
2017-10-12T03:49:56.831Z,0.00
2017-10-12T03:50:56.800Z,0.00
2017-10-12T03:51:56.767Z,0.00
2017-10-12T03:52:56.732Z,0.00
2017-10-12T03:53:56.699Z,0.00
2017-10-12T03:54:56.668Z,0.00
2017-10-12T03:55:56.634Z,0.00
2017-10-12T03:56:56.602Z,0.00
2017-10-12T03:57:56.568Z,0.00
2017-10-12T03:58:56.535Z,0.00
2017-10-12T03:59:56.501Z,0.00
2017-10-12T04:00:56.470Z,0.00
2017-10-12T04:01:56.434Z,0.00
2017-10-12T04:02:56.401Z,0.00
2017-10-12T04:03:56.369Z,0.00
2017-10-12T04:04:56.338Z,0.00
2017-10-12T04:05:56.568Z,0.00
2017-10-12T04:06:56.271Z,0.00
2017-10-12T04:07:56.235Z,0.00
2017-10-12T04:08:56.205Z,0.00
2017-10-12T04:09:56.172Z,0.00
2017-10-12T04:10:56.138Z,0.00
2017-10-12T04:11:56.105Z,0.00
2017-10-12T04:12:56.073Z,0.00
2017-10-12T04:13:56.040Z,0.00
2017-10-12T04:14:56.007Z,0.00
2017-10-12T04:15:55.974Z,0.00
2017-10-12T04:16:55.940Z,0.00
2017-10-12T04:17:55.905Z,0.00
2017-10-12T04:18:55.875Z,0.00
2017-10-12T04:19:55.842Z,0.00
2017-10-12T04:20:55.809Z,0.00
2017-10-12T04:21:55.775Z,0.00
2017-10-12T04:22:56.152Z,0.00
2017-10-12T04:23:55.709Z,0.00
2017-10-12T04:24:55.677Z,0.00
2017-10-12T04:25:55.641Z,0.00
2017-10-12T04:26:55.617Z,0.00
2017-10-12T04:27:55.577Z,0.00
2017-10-12T04:28:55.544Z,0.00
2017-10-12T04:29:55.510Z,0.00
2017-10-12T04:30:55.479Z,0.00
2017-10-12T04:31:55.443Z,0.00
2017-10-12T04:32:55.411Z,0.00
2017-10-12T04:33:55.376Z,0.00
2017-10-12T04:34:55.344Z,0.00
2017-10-12T04:35:55.310Z,0.00
2017-10-12T04:36:55.277Z,0.00
2017-10-12T04:37:55.243Z,0.00
2017-10-12T04:38:55.210Z,0.00
2017-10-12T04:39:55.178Z,0.00
2017-10-12T04:40:55.143Z,0.00
2017-10-12T04:41:55.111Z,0.00
2017-10-12T04:42:55.078Z,0.00
2017-10-12T04:43:55.043Z,0.00
2017-10-12T04:44:55.009Z,0.00
2017-10-12T04:45:54.975Z,0.00
2017-10-12T04:46:54.943Z,0.00
2017-10-12T04:47:54.910Z,0.00
2017-10-12T04:48:54.878Z,0.00
2017-10-12T04:49:54.837Z,0.00
2017-10-12T04:50:55.652Z,0.00
2017-10-12T04:51:54.776Z,0.00
2017-10-12T04:52:54.768Z,0.00
2017-10-12T04:53:54.708Z,0.00
2017-10-12T04:54:55.042Z,0.00
2017-10-12T04:55:54.641Z,0.00
2017-10-12T04:56:54.609Z,0.00
2017-10-12T04:57:54.574Z,0.00
2017-10-12T04:58:54.543Z,0.00
2017-10-12T04:59:54.511Z,0.00
2017-10-12T05:00:54.471Z,0.00
2017-10-12T05:01:54.439Z,0.00
2017-10-12T05:02:54.407Z,0.00
2017-10-12T05:03:54.374Z,0.00
2017-10-12T05:04:54.346Z,0.00
2017-10-12T05:05:54.306Z,0.00
2017-10-12T05:06:54.272Z,0.00
2017-10-12T05:07:54.239Z,0.00
2017-10-12T05:08:54.206Z,0.00
2017-10-12T05:09:54.172Z,0.00
2017-10-12T05:10:54.138Z,0.00
2017-10-12T05:11:54.106Z,0.00
2017-10-12T05:12:54.072Z,0.00
2017-10-12T05:13:54.037Z,0.00
2017-10-12T05:14:54.008Z,0.00
2017-10-12T05:15:53.970Z,0.00
2017-10-12T05:16:53.937Z,0.00
2017-10-12T05:17:53.903Z,0.00
2017-10-12T05:18:53.869Z,0.00
2017-10-12T05:19:53.836Z,0.00
2017-10-12T05:20:53.804Z,0.00
2017-10-12T05:21:53.768Z,0.00
2017-10-12T05:22:53.736Z,0.00
2017-10-12T05:23:53.702Z,0.00
2017-10-12T05:24:53.669Z,4.00
2017-10-12T05:25:53.635Z,4.00
2017-10-12T05:26:53.602Z,0.00
2017-10-12T05:27:53.568Z,4.00
2017-10-12T05:28:53.534Z,4.00
2017-10-12T05:29:53.503Z,4.00
2017-10-12T05:30:53.468Z,4.00
2017-10-12T05:31:53.435Z,4.00
2017-10-12T05:32:53.399Z,8.00
2017-10-12T05:33:53.368Z,8.00
2017-10-12T05:34:53.335Z,8.00
2017-10-12T05:35:53.299Z,8.00
2017-10-12T05:36:53.269Z,12.00
2017-10-12T05:37:53.231Z,12.00
2017-10-12T05:38:53.200Z,16.00
2017-10-12T05:39:53.166Z,16.00
2017-10-12T05:40:53.133Z,16.00
2017-10-12T05:41:53.098Z,16.00
2017-10-12T05:42:53.063Z,20.00
2017-10-12T05:43:53.032Z,20.00
2017-10-12T05:44:52.999Z,24.00
2017-10-12T05:45:52.963Z,28.00
2017-10-12T05:46:52.932Z,36.00
2017-10-12T05:47:52.897Z,40.00
2017-10-12T05:48:52.865Z,44.00
2017-10-12T05:49:52.832Z,44.00
2017-10-12T05:50:52.795Z,52.00
2017-10-12T05:51:52.763Z,56.00
2017-10-12T05:52:52.729Z,64.00
2017-10-12T05:53:52.695Z,64.00
2017-10-12T05:54:52.661Z,64.00
2017-10-12T05:55:52.628Z,60.00
2017-10-12T05:56:53.290Z,56.00
2017-10-12T05:57:52.558Z,56.00
2017-10-12T05:58:52.528Z,52.00
2017-10-12T05:59:52.492Z,44.00
2017-10-12T06:00:52.460Z,40.00
2017-10-12T06:01:52.426Z,52.00
2017-10-12T06:02:52.392Z,64.00
2017-10-12T06:03:52.359Z,76.00
2017-10-12T06:04:52.327Z,76.00
2017-10-12T06:05:52.289Z,72.00
2017-10-12T06:06:52.258Z,88.00
2017-10-12T06:07:52.224Z,108.00
2017-10-12T06:08:52.192Z,116.00
2017-10-12T06:09:52.155Z,132.00
2017-10-12T06:10:52.131Z,140.00
2017-10-12T06:11:52.092Z,148.00
2017-10-12T06:12:52.058Z,160.00
2017-10-12T06:13:52.023Z,176.00
2017-10-12T06:14:51.992Z,192.00
2017-10-12T06:15:51.959Z,208.00
2017-10-12T06:16:51.926Z,232.00
2017-10-12T06:17:51.893Z,272.00
2017-10-12T06:18:51.858Z,292.00
2017-10-12T06:19:51.824Z,316.00
2017-10-12T06:20:51.793Z,344.00
2017-10-12T06:21:51.758Z,360.00
2017-10-12T06:22:51.724Z,384.00
2017-10-12T06:23:51.691Z,392.00
2017-10-12T06:24:51.889Z,396.00
2017-10-12T06:25:51.635Z,428.00
2017-10-12T06:26:51.593Z,460.00
2017-10-12T06:27:51.558Z,524.00
2017-10-12T06:28:51.532Z,572.00
2017-10-12T06:29:51.490Z,592.00
2017-10-12T06:30:51.457Z,636.00
2017-10-12T06:31:51.423Z,700.00
2017-10-12T06:32:51.392Z,744.00
2017-10-12T06:33:51.360Z,844.00
2017-10-12T06:34:51.324Z,852.00
2017-10-12T06:35:51.290Z,844.00
2017-10-12T06:36:51.259Z,844.00
2017-10-12T06:37:51.225Z,864.00
2017-10-12T06:38:51.195Z,848.00
2017-10-12T06:39:51.158Z,864.00
2017-10-12T06:40:51.124Z,888.00
2017-10-12T06:41:51.091Z,872.00
2017-10-12T06:42:51.061Z,848.00
2017-10-12T06:43:51.026Z,832.00
2017-10-12T06:44:50.994Z,824.00
2017-10-12T06:45:50.960Z,776.00
2017-10-12T06:46:50.926Z,772.00
2017-10-12T06:47:50.893Z,784.00
2017-10-12T06:48:50.860Z,844.00
2017-10-12T06:49:50.828Z,900.00
2017-10-12T06:50:50.795Z,960.00
2017-10-12T06:51:50.762Z,976.00
2017-10-12T06:52:50.730Z,948.00
2017-10-12T06:53:50.696Z,980.00
2017-10-12T06:54:50.694Z,1000.00
2017-10-12T06:55:50.634Z,968.00
2017-10-12T06:56:50.598Z,1012.00
2017-10-12T06:57:50.739Z,1036.00
2017-10-12T06:58:50.643Z,1004.00
2017-10-12T06:59:50.612Z,1028.00
2017-10-12T07:00:50.741Z,1088.00
2017-10-12T07:01:50.432Z,1516.00
2017-10-12T07:02:50.397Z,1180.00
2017-10-12T07:03:50.367Z,1580.00
2017-10-12T07:04:50.335Z,1696.00
2017-10-12T07:05:50.299Z,2432.00
2017-10-12T07:06:50.267Z,1764.00
2017-10-12T07:07:50.236Z,2164.00
2017-10-12T07:08:50.204Z,2712.00
2017-10-12T07:09:51.070Z,2240.00
2017-10-12T07:10:50.136Z,1744.00
2017-10-12T07:11:50.103Z,1896.00
2017-10-12T07:12:50.072Z,1772.00
2017-10-12T07:13:50.039Z,2592.00
2017-10-12T07:14:50.008Z,2872.00
2017-10-12T07:15:49.978Z,4724.00
2017-10-12T07:16:49.944Z,4872.00
2017-10-12T07:17:49.910Z,4384.00
2017-10-12T07:18:49.880Z,4616.00
2017-10-12T07:19:49.846Z,4944.00
2017-10-12T07:20:49.816Z,5136.00
2017-10-12T07:21:49.784Z,4652.00
2017-10-12T07:22:49.753Z,3668.00
2017-10-12T07:23:49.722Z,3312.00
2017-10-12T07:24:49.697Z,3036.00
2017-10-12T07:25:49.658Z,3340.00
2017-10-12T07:26:49.627Z,2096.00
2017-10-12T07:27:49.599Z,2136.00
2017-10-12T07:28:49.566Z,4092.00
2017-10-12T07:29:49.534Z,2108.00
2017-10-12T07:30:49.503Z,2288.00
2017-10-12T07:31:49.475Z,4976.00
2017-10-12T07:32:49.444Z,4056.00
2017-10-12T07:33:49.972Z,4080.00
2017-10-12T07:34:49.381Z,3024.00
2017-10-12T07:35:49.351Z,3092.00
2017-10-12T07:36:49.321Z,4728.00
2017-10-12T07:37:49.291Z,4504.00
2017-10-12T07:38:49.259Z,4624.00
2017-10-12T07:39:49.231Z,4632.00
2017-10-12T07:40:49.200Z,3936.00
2017-10-12T07:41:49.171Z,3196.00
2017-10-12T07:42:49.140Z,3576.00
2017-10-12T07:43:49.109Z,4080.00
2017-10-12T07:44:49.080Z,3844.00
2017-10-12T07:45:49.051Z,4408.00
2017-10-12T07:46:49.022Z,5000.00
2017-10-12T07:47:48.992Z,4032.00
2017-10-12T07:48:48.963Z,4864.00
2017-10-12T07:49:48.934Z,3636.00
2017-10-12T07:50:48.911Z,2344.00
2017-10-12T07:51:48.877Z,2016.00
2017-10-12T07:52:48.848Z,2240.00
2017-10-12T07:53:48.821Z,2220.00
2017-10-12T07:54:48.793Z,2188.00
2017-10-12T07:55:48.761Z,2324.00
2017-10-12T07:56:48.731Z,2220.00
2017-10-12T07:57:48.699Z,2024.00
2017-10-12T07:58:48.671Z,2472.00
2017-10-12T07:59:48.639Z,3116.00
2017-10-12T08:00:48.613Z,5312.00
2017-10-12T08:01:48.584Z,6060.00
2017-10-12T08:02:48.551Z,2436.00
2017-10-12T08:03:48.522Z,2472.00
2017-10-12T08:04:48.492Z,2128.00
2017-10-12T08:05:48.465Z,2116.00
2017-10-12T08:06:48.432Z,2520.00
2017-10-12T08:07:48.411Z,7532.00
2017-10-12T08:08:48.373Z,7192.00
2017-10-12T08:09:48.343Z,7172.00
2017-10-12T08:10:48.312Z,6328.00
2017-10-12T08:11:48.288Z,6636.00
2017-10-12T08:12:48.256Z,6564.00
2017-10-12T08:13:48.228Z,6804.00
2017-10-12T08:14:48.200Z,7020.00
2017-10-12T08:15:48.170Z,4060.00
2017-10-12T08:16:48.143Z,6584.00
2017-10-12T08:17:48.115Z,7152.00
2017-10-12T08:18:48.087Z,7464.00
2017-10-12T08:19:48.060Z,8068.00
2017-10-12T08:20:48.035Z,7792.00
2017-10-12T08:21:48.006Z,9148.00
2017-10-12T08:22:47.980Z,7084.00
2017-10-12T08:23:47.953Z,3008.00
2017-10-12T08:24:47.929Z,6492.00
2017-10-12T08:25:47.900Z,4592.00
2017-10-12T08:26:47.874Z,2788.00
2017-10-12T08:27:47.850Z,9728.00
2017-10-12T08:28:47.823Z,3540.00
2017-10-12T08:29:47.796Z,9448.00
2017-10-12T08:30:47.769Z,8624.00
2017-10-12T08:31:47.749Z,9744.00
2017-10-12T08:32:47.718Z,3228.00
2017-10-12T08:33:47.692Z,9592.00
2017-10-12T08:34:47.664Z,3420.00
2017-10-12T08:35:47.639Z,9344.00
2017-10-12T08:36:47.615Z,9324.00
2017-10-12T08:37:47.584Z,9788.00
2017-10-12T08:38:47.563Z,9608.00
2017-10-12T08:39:47.536Z,8932.00
2017-10-12T08:40:47.676Z,8216.00
2017-10-12T08:41:47.490Z,9128.00
2017-10-12T08:42:47.460Z,2832.00
2017-10-12T08:43:47.435Z,9940.00
2017-10-12T08:44:47.413Z,10688.00
2017-10-12T08:45:47.386Z,2788.00
2017-10-12T08:46:47.359Z,2712.00
2017-10-12T08:47:47.335Z,10444.00
2017-10-12T08:48:47.307Z,10520.00
2017-10-12T08:49:47.283Z,10372.00
2017-10-12T08:50:47.257Z,10244.00
2017-10-12T08:51:47.236Z,10368.00
2017-10-12T08:52:47.208Z,10704.00
2017-10-12T08:53:47.183Z,10760.00
2017-10-12T08:54:47.160Z,10632.00
2017-10-12T08:55:47.136Z,3336.00
2017-10-12T08:56:47.112Z,2560.00
2017-10-12T08:57:47.087Z,11296.00
2017-10-12T08:58:47.065Z,10724.00
2017-10-12T08:59:47.040Z,9968.00
2017-10-12T09:00:47.018Z,10036.00
2017-10-12T09:01:46.995Z,9180.00
2017-10-12T09:02:46.986Z,8628.00
2017-10-12T09:03:46.946Z,8600.00
2017-10-12T09:04:46.923Z,8976.00
2017-10-12T09:05:46.928Z,8840.00
2017-10-12T09:06:46.874Z,8716.00
2017-10-12T09:07:46.854Z,6856.00
2017-10-12T09:08:46.834Z,4296.00
2017-10-12T09:09:46.808Z,5204.00
2017-10-12T09:10:46.786Z,8308.00
2017-10-12T09:11:46.845Z,7580.00
2017-10-12T09:12:46.741Z,8284.00
2017-10-12T09:13:46.717Z,6760.00
2017-10-12T09:14:46.694Z,5308.00
2017-10-12T09:15:46.673Z,3204.00
2017-10-12T09:16:46.647Z,7916.00
2017-10-12T09:17:46.626Z,6976.00
2017-10-12T09:18:46.601Z,3288.00
2017-10-12T09:19:46.580Z,8436.00
2017-10-12T09:20:46.554Z,8636.00
2017-10-12T09:21:46.530Z,5744.00
2017-10-12T09:22:46.505Z,6940.00
2017-10-12T09:23:46.483Z,8028.00
2017-10-12T09:24:46.459Z,8288.00
2017-10-12T09:25:46.435Z,8392.00
2017-10-12T09:26:46.411Z,7720.00
2017-10-12T09:27:46.387Z,8288.00
2017-10-12T09:28:46.365Z,7204.00
2017-10-12T09:29:46.339Z,7724.00
2017-10-12T09:30:46.317Z,6584.00
2017-10-12T09:31:46.295Z,7820.00
2017-10-12T09:32:46.272Z,7800.00
2017-10-12T09:33:46.248Z,3508.00
2017-10-12T09:34:46.225Z,7888.00
2017-10-12T09:35:46.201Z,3892.00
2017-10-12T09:36:46.178Z,8404.00
2017-10-12T09:37:46.156Z,3820.00
2017-10-12T09:38:46.131Z,3536.00
2017-10-12T09:39:46.460Z,7516.00
2017-10-12T09:40:46.102Z,7544.00
2017-10-12T09:41:46.060Z,8396.00
2017-10-12T09:42:46.039Z,8576.00
2017-10-12T09:43:46.015Z,8560.00
2017-10-12T09:44:45.990Z,8424.00
2017-10-12T09:45:45.965Z,8568.00
2017-10-12T09:46:45.943Z,8316.00
2017-10-12T09:47:45.921Z,8280.00
2017-10-12T09:48:45.898Z,8844.00
2017-10-12T09:49:45.873Z,6676.00
2017-10-12T09:50:45.850Z,8444.00
2017-10-12T09:51:45.843Z,8940.00
2017-10-12T09:52:45.806Z,9000.00
2017-10-12T09:53:45.781Z,8928.00
2017-10-12T09:54:45.760Z,8660.00
2017-10-12T09:55:45.742Z,9412.00
2017-10-12T09:56:45.714Z,9468.00
2017-10-12T09:57:45.692Z,9144.00
2017-10-12T09:58:45.671Z,9116.00
2017-10-12T09:59:45.650Z,8428.00
2017-10-12T10:00:45.630Z,8684.00
2017-10-12T10:01:45.607Z,8788.00
2017-10-12T10:02:45.585Z,9444.00
2017-10-12T10:03:45.564Z,9440.00
2017-10-12T10:04:45.542Z,8860.00
2017-10-12T10:05:45.520Z,7672.00
2017-10-12T10:06:45.502Z,7404.00
2017-10-12T10:07:45.478Z,8316.00
2017-10-12T10:08:45.454Z,8332.00
2017-10-12T10:09:45.434Z,6788.00
2017-10-12T10:10:45.410Z,8600.00
2017-10-12T10:11:45.390Z,8336.00
2017-10-12T10:12:45.368Z,7836.00
2017-10-12T10:13:45.346Z,8152.00
2017-10-12T10:14:45.590Z,8108.00
2017-10-12T10:15:45.299Z,8544.00
2017-10-12T10:16:45.278Z,8192.00
2017-10-12T10:17:45.593Z,9032.00
2017-10-12T10:18:45.231Z,9268.00
2017-10-12T10:19:45.212Z,8504.00
2017-10-12T10:20:45.188Z,7524.00
2017-10-12T10:21:45.163Z,6768.00
2017-10-12T10:22:45.141Z,7708.00
2017-10-12T10:23:45.728Z,8036.00
2017-10-12T10:24:45.097Z,7956.00
2017-10-12T10:25:45.073Z,8440.00
2017-10-12T10:26:45.052Z,9276.00
2017-10-12T10:27:45.027Z,7796.00
2017-10-12T10:28:45.004Z,10060.00
2017-10-12T10:29:44.981Z,9120.00
2017-10-12T10:30:44.957Z,8956.00
2017-10-12T10:31:44.934Z,9540.00
2017-10-12T10:32:44.910Z,9672.00
2017-10-12T10:33:44.888Z,7212.00
2017-10-12T10:34:44.866Z,8192.00
2017-10-12T10:35:44.959Z,7496.00
2017-10-12T10:36:44.819Z,8580.00
2017-10-12T10:37:44.796Z,8068.00
2017-10-12T10:38:44.960Z,9328.00
2017-10-12T10:39:44.749Z,8728.00
2017-10-12T10:40:44.723Z,8088.00
2017-10-12T10:41:44.965Z,8316.00
2017-10-12T10:42:44.678Z,8092.00
2017-10-12T10:43:44.656Z,6108.00
2017-10-12T10:44:45.177Z,7676.00
2017-10-12T10:45:44.822Z,7764.00
2017-10-12T10:46:45.169Z,6312.00
2017-10-12T10:47:44.558Z,5980.00
2017-10-12T10:48:44.537Z,6764.00
2017-10-12T10:49:44.509Z,7020.00
2017-10-12T10:50:44.485Z,6704.00
2017-10-12T10:51:44.462Z,7696.00
2017-10-12T10:52:44.437Z,9440.00
2017-10-12T10:53:44.410Z,10232.00
2017-10-12T10:54:44.387Z,10208.00
2017-10-12T10:55:44.412Z,10248.00
2017-10-12T10:56:44.337Z,10612.00
2017-10-12T10:57:44.313Z,10340.00
2017-10-12T10:58:44.290Z,10540.00
2017-10-12T10:59:44.268Z,10212.00
2017-10-12T11:00:44.243Z,9584.00
2017-10-12T11:01:44.219Z,8128.00
2017-10-12T11:02:44.196Z,8484.00
2017-10-12T11:03:44.174Z,10904.00
2017-10-12T11:04:44.150Z,10808.00
2017-10-12T11:05:44.125Z,10852.00
2017-10-12T11:06:44.104Z,11148.00
2017-10-12T11:07:44.075Z,11316.00
2017-10-12T11:08:44.057Z,6764.00
2017-10-12T11:09:44.034Z,12092.00
2017-10-12T11:10:44.013Z,12608.00
2017-10-12T11:11:43.990Z,12356.00
2017-10-12T11:12:43.969Z,15200.00
2017-10-12T11:13:43.945Z,14592.00
2017-10-12T11:14:43.923Z,14848.00
2017-10-12T11:15:43.900Z,14592.00
2017-10-12T11:16:43.880Z,10412.00
2017-10-12T11:17:43.858Z,9020.00
2017-10-12T11:18:43.836Z,16224.00
2017-10-12T11:19:43.815Z,10120.00
2017-10-12T11:20:43.797Z,9084.00
2017-10-12T11:21:43.769Z,6080.00
2017-10-12T11:22:43.751Z,6320.00
2017-10-12T11:23:43.725Z,6080.00
2017-10-12T11:24:43.702Z,8696.00
2017-10-12T11:25:43.688Z,10512.00
2017-10-12T11:26:43.654Z,12536.00
2017-10-12T11:27:43.634Z,16320.00
2017-10-12T11:28:43.608Z,7412.00
2017-10-12T11:29:43.586Z,17664.00
2017-10-12T11:30:43.563Z,7156.00
2017-10-12T11:31:43.540Z,5656.00
2017-10-12T11:32:43.516Z,5768.00
2017-10-12T11:33:43.491Z,5192.00
2017-10-12T11:34:43.473Z,4744.00
2017-10-12T11:35:43.445Z,5096.00
2017-10-12T11:36:43.420Z,5372.00
2017-10-12T11:37:43.391Z,7004.00
2017-10-12T11:38:43.366Z,6148.00
2017-10-12T11:39:43.341Z,8440.00
2017-10-12T11:40:43.314Z,10788.00
2017-10-12T11:41:43.288Z,9128.00
2017-10-12T11:42:43.260Z,10856.00
2017-10-12T11:43:43.234Z,6224.00
2017-10-12T11:44:43.207Z,8516.00
2017-10-12T11:45:43.342Z,6128.00
2017-10-12T11:46:43.152Z,12080.00
2017-10-12T11:47:43.125Z,12220.00
2017-10-12T11:48:43.100Z,5864.00
2017-10-12T11:49:43.345Z,5832.00
2017-10-12T11:50:43.345Z,12180.00
2017-10-12T11:51:43.291Z,13300.00
2017-10-12T11:52:42.993Z,9808.00
2017-10-12T11:53:42.964Z,10108.00
2017-10-12T11:54:42.939Z,9628.00
2017-10-12T11:55:42.918Z,7972.00
2017-10-12T11:56:42.885Z,13108.00
2017-10-12T11:57:42.859Z,14960.00
2017-10-12T11:58:43.552Z,17248.00
2017-10-12T11:59:42.805Z,16480.00
2017-10-12T12:00:42.778Z,17888.00
2017-10-12T12:01:42.752Z,21280.00
2017-10-12T12:02:42.727Z,17760.00
2017-10-12T12:03:42.701Z,14768.00
2017-10-12T12:04:42.680Z,17184.00
2017-10-12T12:05:42.650Z,16480.00
2017-10-12T12:06:42.627Z,16864.00
2017-10-12T12:07:42.603Z,18880.00
2017-10-12T12:08:42.701Z,18304.00
2017-10-12T12:09:42.549Z,17088.00
2017-10-12T12:10:42.523Z,17344.00
2017-10-12T12:11:42.499Z,18336.00
2017-10-12T12:12:42.474Z,16544.00
2017-10-12T12:13:43.115Z,19808.00
2017-10-12T12:14:42.424Z,17312.00
2017-10-12T12:15:42.398Z,17952.00
2017-10-12T12:16:42.375Z,14676.00
2017-10-12T12:17:42.347Z,11068.00
2017-10-12T12:18:42.324Z,9072.00
2017-10-12T12:19:42.298Z,8844.00
2017-10-12T12:20:42.273Z,8700.00
2017-10-12T12:21:42.244Z,8692.00
2017-10-12T12:22:42.504Z,8640.00
2017-10-12T12:23:42.193Z,8360.00
2017-10-12T12:24:42.168Z,8716.00
2017-10-12T12:25:42.142Z,8540.00
2017-10-12T12:26:42.115Z,8388.00
2017-10-12T12:27:42.089Z,8732.00
2017-10-12T12:28:42.061Z,10228.00
2017-10-12T12:29:42.036Z,13760.00
2017-10-12T12:30:42.009Z,9068.00
2017-10-12T12:31:41.984Z,6364.00
2017-10-12T12:32:41.958Z,5796.00
2017-10-12T12:33:41.930Z,5664.00
2017-10-12T12:34:41.904Z,6476.00
2017-10-12T12:35:41.881Z,7120.00
2017-10-12T12:36:41.851Z,5324.00